sensor_id;sensor_type;location;lat;lon;timestamp;P1;durP1;ratioP1;P2;durP2;ratioP2
22904;SDS011;11619;50.140;8.518;2023-04-25T00:00:48;7.20;;;6.35;;
22904;SDS011;11619;50.140;8.518;2023-04-25T00:03:14;6.90;;;6.20;;
22904;SDS011;11619;50.140;8.518;2023-04-25T00:05:42;9.30;;;7.10;;
22904;SDS011;11619;50.140;8.518;2023-04-25T00:08:09;7.75;;;6.90;;
22904;SDS011;11619;50.140;8.518;2023-04-25T00:10:35;9.10;;;6.90;;
22904;SDS011;11619;50.140;8.518;2023-04-25T00:13:02;7.65;;;6.80;;
22904;SDS011;11619;50.140;8.518;2023-04-25T00:15:29;8.05;;;7.13;;
22904;SDS011;11619;50.140;8.518;2023-04-25T00:17:56;7.88;;;7.18;;
22904;SDS011;11619;50.140;8.518;2023-04-25T00:20:23;7.30;;;6.60;;
22904;SDS011;11619;50.140;8.518;2023-04-25T00:22:50;7.25;;;6.55;;
22904;SDS011;11619;50.140;8.518;2023-04-25T00:25:19;7.55;;;6.78;;
22904;SDS011;11619;50.140;8.518;2023-04-25T00:27:45;7.80;;;7.10;;
22904;SDS011;11619;50.140;8.518;2023-04-25T00:30:12;7.82;;;7.07;;
22904;SDS011;11619;50.140;8.518;2023-04-25T00:32:39;7.28;;;6.60;;
22904;SDS011;11619;50.140;8.518;2023-04-25T00:35:05;8.43;;;7.63;;
22904;SDS011;11619;50.140;8.518;2023-04-25T00:37:32;7.80;;;7.00;;
22904;SDS011;11619;50.140;8.518;2023-04-25T00:39:58;7.60;;;6.72;;
22904;SDS011;11619;50.140;8.518;2023-04-25T00:42:24;9.27;;;7.10;;
22904;SDS011;11619;50.140;8.518;2023-04-25T00:44:51;6.43;;;5.90;;
22904;SDS011;11619;50.140;8.518;2023-04-25T00:47:18;7.70;;;6.40;;
22904;SDS011;11619;50.140;8.518;2023-04-25T00:49:45;7.15;;;5.60;;
22904;SDS011;11619;50.140;8.518;2023-04-25T00:52:12;5.05;;;4.55;;
22904;SDS011;11619;50.140;8.518;2023-04-25T00:54:38;5.40;;;4.38;;
22904;SDS011;11619;50.140;8.518;2023-04-25T00:57:05;7.10;;;4.60;;
22904;SDS011;11619;50.140;8.518;2023-04-25T00:59:31;5.40;;;4.15;;
22904;SDS011;11619;50.140;8.518;2023-04-25T01:01:57;5.60;;;4.10;;
22904;SDS011;11619;50.140;8.518;2023-04-25T01:04:24;8.15;;;5.05;;
22904;SDS011;11619;50.140;8.518;2023-04-25T01:06:53;6.60;;;4.05;;
22904;SDS011;11619;50.140;8.518;2023-04-25T01:09:19;5.25;;;4.68;;
22904;SDS011;11619;50.140;8.518;2023-04-25T01:11:46;5.30;;;4.20;;
22904;SDS011;11619;50.140;8.518;2023-04-25T01:14:12;5.70;;;5.15;;
22904;SDS011;11619;50.140;8.518;2023-04-25T01:16:39;5.32;;;4.70;;
22904;SDS011;11619;50.140;8.518;2023-04-25T01:19:08;6.07;;;5.18;;
22904;SDS011;11619;50.140;8.518;2023-04-25T01:21:38;5.95;;;4.93;;
22904;SDS011;11619;50.140;8.518;2023-04-25T01:24:05;5.00;;;4.22;;
22904;SDS011;11619;50.140;8.518;2023-04-25T01:26:32;6.70;;;5.05;;
22904;SDS011;11619;50.140;8.518;2023-04-25T01:28:58;5.18;;;4.68;;
22904;SDS011;11619;50.140;8.518;2023-04-25T01:31:26;6.10;;;5.50;;
22904;SDS011;11619;50.140;8.518;2023-04-25T01:33:52;5.50;;;4.53;;
22904;SDS011;11619;50.140;8.518;2023-04-25T01:36:19;9.43;;;5.63;;
22904;SDS011;11619;50.140;8.518;2023-04-25T01:38:46;6.05;;;5.40;;
22904;SDS011;11619;50.140;8.518;2023-04-25T01:41:13;6.60;;;5.03;;
22904;SDS011;11619;50.140;8.518;2023-04-25T01:43:40;6.57;;;5.22;;
22904;SDS011;11619;50.140;8.518;2023-04-25T01:46:06;6.22;;;5.20;;
22904;SDS011;11619;50.140;8.518;2023-04-25T01:48:33;5.40;;;4.90;;
22904;SDS011;11619;50.140;8.518;2023-04-25T01:50:59;4.63;;;4.22;;
22904;SDS011;11619;50.140;8.518;2023-04-25T01:53:26;5.45;;;4.95;;
22904;SDS011;11619;50.140;8.518;2023-04-25T01:55:52;8.00;;;6.00;;
22904;SDS011;11619;50.140;8.518;2023-04-25T01:58:19;7.32;;;5.65;;
22904;SDS011;11619;50.140;8.518;2023-04-25T02:00:46;5.50;;;4.97;;
22904;SDS011;11619;50.140;8.518;2023-04-25T02:03:12;6.20;;;5.30;;
22904;SDS011;11619;50.140;8.518;2023-04-25T02:05:39;7.85;;;5.60;;
22904;SDS011;11619;50.140;8.518;2023-04-25T02:08:06;8.02;;;6.13;;
22904;SDS011;11619;50.140;8.518;2023-04-25T02:10:34;7.57;;;6.88;;
22904;SDS011;11619;50.140;8.518;2023-04-25T02:13:00;6.65;;;5.95;;
22904;SDS011;11619;50.140;8.518;2023-04-25T02:15:27;7.38;;;6.20;;
22904;SDS011;11619;50.140;8.518;2023-04-25T02:17:53;7.53;;;6.32;;
22904;SDS011;11619;50.140;8.518;2023-04-25T02:20:20;7.80;;;7.00;;
22904;SDS011;11619;50.140;8.518;2023-04-25T02:22:47;8.20;;;6.82;;
22904;SDS011;11619;50.140;8.518;2023-04-25T02:25:14;9.30;;;7.32;;
22904;SDS011;11619;50.140;8.518;2023-04-25T02:27:42;8.07;;;6.97;;
22904;SDS011;11619;50.140;8.518;2023-04-25T02:30:09;8.68;;;7.25;;
22904;SDS011;11619;50.140;8.518;2023-04-25T02:32:35;8.93;;;7.10;;
22904;SDS011;11619;50.140;8.518;2023-04-25T02:35:02;9.60;;;7.47;;
22904;SDS011;11619;50.140;8.518;2023-04-25T02:37:30;10.73;;;8.05;;
22904;SDS011;11619;50.140;8.518;2023-04-25T02:39:56;8.77;;;7.97;;
22904;SDS011;11619;50.140;8.518;2023-04-25T02:42:23;9.18;;;7.60;;
22904;SDS011;11619;50.140;8.518;2023-04-25T02:44:49;9.55;;;8.10;;
22904;SDS011;11619;50.140;8.518;2023-04-25T02:47:16;8.98;;;8.02;;
22904;SDS011;11619;50.140;8.518;2023-04-25T02:49:42;11.30;;;8.63;;
22904;SDS011;11619;50.140;8.518;2023-04-25T02:52:09;8.38;;;7.57;;
22904;SDS011;11619;50.140;8.518;2023-04-25T02:54:35;9.23;;;8.32;;
22904;SDS011;11619;50.140;8.518;2023-04-25T02:57:01;9.52;;;8.52;;
22904;SDS011;11619;50.140;8.518;2023-04-25T02:59:28;8.73;;;7.82;;
22904;SDS011;11619;50.140;8.518;2023-04-25T03:01:56;10.00;;;8.02;;
22904;SDS011;11619;50.140;8.518;2023-04-25T03:04:22;11.25;;;8.27;;
22904;SDS011;11619;50.140;8.518;2023-04-25T03:06:50;11.98;;;8.35;;
22904;SDS011;11619;50.140;8.518;2023-04-25T03:09:16;14.60;;;8.63;;
22904;SDS011;11619;50.140;8.518;2023-04-25T03:11:43;9.73;;;7.80;;
22904;SDS011;11619;50.140;8.518;2023-04-25T03:14:11;10.75;;;8.35;;
22904;SDS011;11619;50.140;8.518;2023-04-25T03:16:37;11.88;;;8.38;;
22904;SDS011;11619;50.140;8.518;2023-04-25T03:19:04;9.15;;;8.10;;
22904;SDS011;11619;50.140;8.518;2023-04-25T03:21:31;13.38;;;8.02;;
22904;SDS011;11619;50.140;8.518;2023-04-25T03:23:59;14.07;;;8.88;;
22904;SDS011;11619;50.140;8.518;2023-04-25T03:26:26;11.85;;;8.70;;
22904;SDS011;11619;50.140;8.518;2023-04-25T03:28:52;11.55;;;9.20;;
22904;SDS011;11619;50.140;8.518;2023-04-25T03:31:19;14.63;;;8.60;;
22904;SDS011;11619;50.140;8.518;2023-04-25T03:33:46;13.35;;;8.80;;
22904;SDS011;11619;50.140;8.518;2023-04-25T03:36:12;11.93;;;8.88;;
22904;SDS011;11619;50.140;8.518;2023-04-25T03:38:38;16.15;;;9.05;;
22904;SDS011;11619;50.140;8.518;2023-04-25T03:41:07;13.60;;;9.20;;
22904;SDS011;11619;50.140;8.518;2023-04-25T03:43:33;13.63;;;9.88;;
22904;SDS011;11619;50.140;8.518;2023-04-25T03:46:00;12.05;;;9.38;;
22904;SDS011;11619;50.140;8.518;2023-04-25T03:48:26;13.40;;;9.18;;
22904;SDS011;11619;50.140;8.518;2023-04-25T03:50:53;15.20;;;9.63;;
22904;SDS011;11619;50.140;8.518;2023-04-25T03:53:20;14.38;;;9.30;;
22904;SDS011;11619;50.140;8.518;2023-04-25T03:55:46;15.35;;;9.35;;
22904;SDS011;11619;50.140;8.518;2023-04-25T03:58:13;12.95;;;9.00;;
22904;SDS011;11619;50.140;8.518;2023-04-25T04:00:39;10.32;;;8.20;;
22904;SDS011;11619;50.140;8.518;2023-04-25T04:03:06;17.23;;;10.30;;
22904;SDS011;11619;50.140;8.518;2023-04-25T04:05:32;13.50;;;9.95;;
22904;SDS011;11619;50.140;8.518;2023-04-25T04:07:59;15.35;;;9.98;;
22904;SDS011;11619;50.140;8.518;2023-04-25T04:10:26;13.20;;;8.93;;
22904;SDS011;11619;50.140;8.518;2023-04-25T04:12:52;13.23;;;8.40;;
22904;SDS011;11619;50.140;8.518;2023-04-25T04:15:18;11.82;;;8.45;;
22904;SDS011;11619;50.140;8.518;2023-04-25T04:17:45;14.25;;;9.18;;
22904;SDS011;11619;50.140;8.518;2023-04-25T04:20:13;16.05;;;9.55;;
22904;SDS011;11619;50.140;8.518;2023-04-25T04:22:39;10.60;;;8.43;;
22904;SDS011;11619;50.140;8.518;2023-04-25T04:25:06;12.98;;;8.30;;
22904;SDS011;11619;50.140;8.518;2023-04-25T04:27:33;12.27;;;9.20;;
22904;SDS011;11619;50.140;8.518;2023-04-25T04:30:00;12.77;;;8.52;;
22904;SDS011;11619;50.140;8.518;2023-04-25T04:32:27;11.75;;;8.45;;
22904;SDS011;11619;50.140;8.518;2023-04-25T04:34:54;11.55;;;7.90;;
22904;SDS011;11619;50.140;8.518;2023-04-25T04:37:21;11.35;;;8.05;;
22904;SDS011;11619;50.140;8.518;2023-04-25T04:39:47;11.57;;;8.20;;
22904;SDS011;11619;50.140;8.518;2023-04-25T04:42:14;10.50;;;9.00;;
22904;SDS011;11619;50.140;8.518;2023-04-25T04:44:40;11.27;;;9.27;;
22904;SDS011;11619;50.140;8.518;2023-04-25T04:47:07;24.80;;;13.98;;
22904;SDS011;11619;50.140;8.518;2023-04-25T04:49:33;25.15;;;15.73;;
22904;SDS011;11619;50.140;8.518;2023-04-25T04:52:00;23.25;;;14.85;;
22904;SDS011;11619;50.140;8.518;2023-04-25T04:54:26;18.98;;;13.65;;
22904;SDS011;11619;50.140;8.518;2023-04-25T04:56:55;11.85;;;8.00;;
22904;SDS011;11619;50.140;8.518;2023-04-25T04:59:22;12.77;;;7.57;;
22904;SDS011;11619;50.140;8.518;2023-04-25T05:01:49;12.68;;;7.93;;
22904;SDS011;11619;50.140;8.518;2023-04-25T05:04:15;10.07;;;6.95;;
22904;SDS011;11619;50.140;8.518;2023-04-25T05:06:42;16.65;;;7.78;;
22904;SDS011;11619;50.140;8.518;2023-04-25T05:09:08;14.20;;;7.97;;
22904;SDS011;11619;50.140;8.518;2023-04-25T05:11:35;10.00;;;6.90;;
22904;SDS011;11619;50.140;8.518;2023-04-25T05:14:01;13.80;;;7.70;;
22904;SDS011;11619;50.140;8.518;2023-04-25T05:16:28;8.35;;;6.88;;
22904;SDS011;11619;50.140;8.518;2023-04-25T05:18:54;9.70;;;7.85;;
22904;SDS011;11619;50.140;8.518;2023-04-25T05:21:20;11.55;;;7.22;;
22904;SDS011;11619;50.140;8.518;2023-04-25T05:23:47;11.20;;;6.97;;
22904;SDS011;11619;50.140;8.518;2023-04-25T05:26:14;8.55;;;6.35;;
22904;SDS011;11619;50.140;8.518;2023-04-25T05:28:40;9.15;;;6.25;;
22904;SDS011;11619;50.140;8.518;2023-04-25T05:31:09;8.63;;;6.50;;
22904;SDS011;11619;50.140;8.518;2023-04-25T05:33:35;13.85;;;6.50;;
22904;SDS011;11619;50.140;8.518;2023-04-25T05:36:02;10.85;;;6.40;;
22904;SDS011;11619;50.140;8.518;2023-04-25T05:38:28;11.18;;;5.45;;
22904;SDS011;11619;50.140;8.518;2023-04-25T05:40:58;9.90;;;6.15;;
22904;SDS011;11619;50.140;8.518;2023-04-25T05:43:24;7.70;;;5.32;;
22904;SDS011;11619;50.140;8.518;2023-04-25T05:45:51;9.35;;;4.80;;
22904;SDS011;11619;50.140;8.518;2023-04-25T05:48:17;11.15;;;5.30;;
22904;SDS011;11619;50.140;8.518;2023-04-25T05:50:43;6.65;;;4.70;;
22904;SDS011;11619;50.140;8.518;2023-04-25T05:53:10;10.27;;;5.18;;
22904;SDS011;11619;50.140;8.518;2023-04-25T05:55:36;7.78;;;4.80;;
22904;SDS011;11619;50.140;8.518;2023-04-25T05:58:04;9.43;;;4.32;;
22904;SDS011;11619;50.140;8.518;2023-04-25T06:00:31;9.02;;;4.53;;
22904;SDS011;11619;50.140;8.518;2023-04-25T06:02:57;7.75;;;4.43;;
22904;SDS011;11619;50.140;8.518;2023-04-25T06:05:24;10.35;;;4.43;;
22904;SDS011;11619;50.140;8.518;2023-04-25T06:07:51;7.40;;;5.13;;
22904;SDS011;11619;50.140;8.518;2023-04-25T06:10:18;6.53;;;5.03;;
22904;SDS011;11619;50.140;8.518;2023-04-25T06:12:44;9.80;;;4.93;;
22904;SDS011;11619;50.140;8.518;2023-04-25T06:15:11;6.85;;;4.00;;
22904;SDS011;11619;50.140;8.518;2023-04-25T06:17:52;8.55;;;4.07;;
22904;SDS011;11619;50.140;8.518;2023-04-25T06:20:19;5.10;;;4.00;;
22904;SDS011;11619;50.140;8.518;2023-04-25T06:22:49;8.52;;;5.03;;
22904;SDS011;11619;50.140;8.518;2023-04-25T06:25:17;12.23;;;4.82;;
22904;SDS011;11619;50.140;8.518;2023-04-25T06:27:44;10.25;;;4.72;;
22904;SDS011;11619;50.140;8.518;2023-04-25T06:30:10;10.00;;;5.18;;
22904;SDS011;11619;50.140;8.518;2023-04-25T06:32:38;7.03;;;4.90;;
22904;SDS011;11619;50.140;8.518;2023-04-25T06:35:05;7.70;;;4.70;;
22904;SDS011;11619;50.140;8.518;2023-04-25T06:37:32;7.88;;;5.20;;
22904;SDS011;11619;50.140;8.518;2023-04-25T06:39:58;9.98;;;4.68;;
22904;SDS011;11619;50.140;8.518;2023-04-25T06:42:25;11.13;;;4.90;;
22904;SDS011;11619;50.140;8.518;2023-04-25T06:44:51;9.75;;;5.18;;
22904;SDS011;11619;50.140;8.518;2023-04-25T06:47:17;11.20;;;5.05;;
22904;SDS011;11619;50.140;8.518;2023-04-25T06:49:44;12.70;;;5.22;;
22904;SDS011;11619;50.140;8.518;2023-04-25T06:52:10;9.85;;;4.68;;
22904;SDS011;11619;50.140;8.518;2023-04-25T06:54:37;12.18;;;4.32;;
22904;SDS011;11619;50.140;8.518;2023-04-25T06:57:03;7.38;;;4.80;;
22904;SDS011;11619;50.140;8.518;2023-04-25T06:59:29;8.65;;;4.63;;
22904;SDS011;11619;50.140;8.518;2023-04-25T07:01:56;6.72;;;4.13;;
22904;SDS011;11619;50.140;8.518;2023-04-25T07:04:22;8.18;;;4.38;;
22904;SDS011;11619;50.140;8.518;2023-04-25T07:06:49;8.15;;;4.28;;
22904;SDS011;11619;50.140;8.518;2023-04-25T07:09:16;6.28;;;3.85;;
22904;SDS011;11619;50.140;8.518;2023-04-25T07:11:42;6.93;;;4.22;;
22904;SDS011;11619;50.140;8.518;2023-04-25T07:14:09;5.93;;;3.45;;
22904;SDS011;11619;50.140;8.518;2023-04-25T07:16:35;7.15;;;3.50;;
22904;SDS011;11619;50.140;8.518;2023-04-25T07:19:02;8.48;;;3.85;;
22904;SDS011;11619;50.140;8.518;2023-04-25T07:21:28;5.88;;;3.53;;
22904;SDS011;11619;50.140;8.518;2023-04-25T07:23:55;11.80;;;4.43;;
22904;SDS011;11619;50.140;8.518;2023-04-25T07:26:21;7.22;;;4.40;;
22904;SDS011;11619;50.140;8.518;2023-04-25T07:28:48;13.48;;;4.55;;
22904;SDS011;11619;50.140;8.518;2023-04-25T07:31:17;8.48;;;4.35;;
22904;SDS011;11619;50.140;8.518;2023-04-25T07:33:47;7.53;;;4.57;;
22904;SDS011;11619;50.140;8.518;2023-04-25T07:36:13;7.57;;;4.03;;
22904;SDS011;11619;50.140;8.518;2023-04-25T07:38:41;7.40;;;4.03;;
22904;SDS011;11619;50.140;8.518;2023-04-25T07:41:07;7.85;;;4.20;;
22904;SDS011;11619;50.140;8.518;2023-04-25T07:43:34;8.20;;;4.20;;
22904;SDS011;11619;50.140;8.518;2023-04-25T07:46:00;8.85;;;3.60;;
22904;SDS011;11619;50.140;8.518;2023-04-25T07:48:26;8.23;;;3.90;;
22904;SDS011;11619;50.140;8.518;2023-04-25T07:50:53;6.38;;;3.97;;
22904;SDS011;11619;50.140;8.518;2023-04-25T07:53:19;8.45;;;4.25;;
22904;SDS011;11619;50.140;8.518;2023-04-25T07:55:46;6.25;;;3.38;;
22904;SDS011;11619;50.140;8.518;2023-04-25T07:58:12;9.50;;;3.58;;
22904;SDS011;11619;50.140;8.518;2023-04-25T08:00:38;6.00;;;3.40;;
22904;SDS011;11619;50.140;8.518;2023-04-25T08:03:05;8.23;;;3.42;;
22904;SDS011;11619;50.140;8.518;2023-04-25T08:05:32;6.30;;;3.10;;
22904;SDS011;11619;50.140;8.518;2023-04-25T08:07:59;8.80;;;3.42;;
22904;SDS011;11619;50.140;8.518;2023-04-25T08:10:27;3.90;;;3.08;;
22904;SDS011;11619;50.140;8.518;2023-04-25T08:12:53;6.65;;;3.55;;
22904;SDS011;11619;50.140;8.518;2023-04-25T08:15:19;4.95;;;3.25;;
22904;SDS011;11619;50.140;8.518;2023-04-25T08:17:46;5.63;;;3.75;;
22904;SDS011;11619;50.140;8.518;2023-04-25T08:20:12;8.35;;;2.95;;
22904;SDS011;11619;50.140;8.518;2023-04-25T08:22:39;5.68;;;3.28;;
22904;SDS011;11619;50.140;8.518;2023-04-25T08:25:06;6.53;;;3.58;;
22904;SDS011;11619;50.140;8.518;2023-04-25T08:27:33;4.80;;;3.30;;
22904;SDS011;11619;50.140;8.518;2023-04-25T08:29:59;4.90;;;3.28;;
22904;SDS011;11619;50.140;8.518;2023-04-25T08:32:25;7.53;;;3.10;;
22904;SDS011;11619;50.140;8.518;2023-04-25T08:34:55;8.05;;;4.00;;
22904;SDS011;11619;50.140;8.518;2023-04-25T08:37:21;6.35;;;3.80;;
22904;SDS011;11619;50.140;8.518;2023-04-25T08:39:48;7.18;;;4.18;;
22904;SDS011;11619;50.140;8.518;2023-04-25T08:42:15;7.45;;;4.60;;
22904;SDS011;11619;50.140;8.518;2023-04-25T08:44:41;6.10;;;4.35;;
22904;SDS011;11619;50.140;8.518;2023-04-25T08:47:08;6.63;;;4.85;;
22904;SDS011;11619;50.140;8.518;2023-04-25T08:49:34;10.00;;;4.80;;
22904;SDS011;11619;50.140;8.518;2023-04-25T08:52:03;7.90;;;4.55;;
22904;SDS011;11619;50.140;8.518;2023-04-25T08:54:32;6.80;;;4.32;;
22904;SDS011;11619;50.140;8.518;2023-04-25T08:57:02;12.65;;;4.30;;
22904;SDS011;11619;50.140;8.518;2023-04-25T08:59:30;6.07;;;4.15;;
22904;SDS011;11619;50.140;8.518;2023-04-25T09:02:00;13.07;;;4.82;;
22904;SDS011;11619;50.140;8.518;2023-04-25T09:04:27;5.50;;;4.40;;
22904;SDS011;11619;50.140;8.518;2023-04-25T09:06:53;7.93;;;4.32;;
22904;SDS011;11619;50.140;8.518;2023-04-25T09:09:20;6.55;;;4.03;;
22904;SDS011;11619;50.140;8.518;2023-04-25T09:11:47;10.25;;;4.47;;
22904;SDS011;11619;50.140;8.518;2023-04-25T09:14:14;10.98;;;4.05;;
22904;SDS011;11619;50.140;8.518;2023-04-25T09:19:27;7.60;;;4.20;;
22904;SDS011;11619;50.140;8.518;2023-04-25T09:22:06;5.85;;;4.75;;
22904;SDS011;11619;50.140;8.518;2023-04-25T09:24:34;6.95;;;5.00;;
22904;SDS011;11619;50.140;8.518;2023-04-25T09:27:11;8.38;;;4.90;;
22904;SDS011;11619;50.140;8.518;2023-04-25T09:29:40;9.20;;;4.72;;
22904;SDS011;11619;50.140;8.518;2023-04-25T09:32:26;7.65;;;4.25;;
22904;SDS011;11619;50.140;8.518;2023-04-25T09:34:53;6.05;;;4.25;;
22904;SDS011;11619;50.140;8.518;2023-04-25T09:37:24;10.43;;;4.20;;
22904;SDS011;11619;50.140;8.518;2023-04-25T09:42:25;9.15;;;5.38;;
22904;SDS011;11619;50.140;8.518;2023-04-25T09:44:53;6.53;;;4.80;;
22904;SDS011;11619;50.140;8.518;2023-04-25T09:47:22;6.93;;;4.80;;
22904;SDS011;11619;50.140;8.518;2023-04-25T09:49:50;5.65;;;4.03;;
22904;SDS011;11619;50.140;8.518;2023-04-25T09:52:20;7.05;;;4.20;;
22904;SDS011;11619;50.140;8.518;2023-04-25T09:54:50;7.15;;;4.28;;
22904;SDS011;11619;50.140;8.518;2023-04-25T09:57:18;7.75;;;4.63;;
22904;SDS011;11619;50.140;8.518;2023-04-25T09:59:46;9.93;;;4.72;;
22904;SDS011;11619;50.140;8.518;2023-04-25T10:02:15;6.20;;;4.50;;
22904;SDS011;11619;50.140;8.518;2023-04-25T10:04:45;6.90;;;4.40;;
22904;SDS011;11619;50.140;8.518;2023-04-25T10:07:19;5.53;;;4.25;;
22904;SDS011;11619;50.140;8.518;2023-04-25T10:09:48;8.10;;;4.35;;
22904;SDS011;11619;50.140;8.518;2023-04-25T10:12:16;4.88;;;3.70;;
22904;SDS011;11619;50.140;8.518;2023-04-25T10:14:42;9.20;;;4.57;;
22904;SDS011;11619;50.140;8.518;2023-04-25T10:17:10;6.82;;;4.50;;
22904;SDS011;11619;50.140;8.518;2023-04-25T10:19:37;5.85;;;3.90;;
22904;SDS011;11619;50.140;8.518;2023-04-25T10:22:07;6.20;;;4.53;;
22904;SDS011;11619;50.140;8.518;2023-04-25T10:24:38;5.90;;;3.75;;
22904;SDS011;11619;50.140;8.518;2023-04-25T10:27:05;7.65;;;3.85;;
22904;SDS011;11619;50.140;8.518;2023-04-25T10:29:32;6.00;;;3.80;;
22904;SDS011;11619;50.140;8.518;2023-04-25T10:31:58;7.03;;;4.22;;
22904;SDS011;11619;50.140;8.518;2023-04-25T10:34:37;5.20;;;3.75;;
22904;SDS011;11619;50.140;8.518;2023-04-25T10:37:10;5.45;;;3.78;;
22904;SDS011;11619;50.140;8.518;2023-04-25T10:39:38;4.72;;;3.42;;
22904;SDS011;11619;50.140;8.518;2023-04-25T10:42:05;5.20;;;3.53;;
22904;SDS011;11619;50.140;8.518;2023-04-25T10:44:32;6.65;;;3.72;;
22904;SDS011;11619;50.140;8.518;2023-04-25T10:47:01;7.07;;;3.90;;
22904;SDS011;11619;50.140;8.518;2023-04-25T10:54:48;9.82;;;3.65;;
22904;SDS011;11619;50.140;8.518;2023-04-25T11:00:17;6.25;;;3.22;;
22904;SDS011;11619;50.140;8.518;2023-04-25T11:07:53;4.30;;;3.47;;
22904;SDS011;11619;50.140;8.518;2023-04-25T11:10:32;7.50;;;3.60;;
22904;SDS011;11619;50.140;8.518;2023-04-25T11:13:02;7.05;;;3.58;;
22904;SDS011;11619;50.140;8.518;2023-04-25T11:15:29;7.53;;;3.38;;
22904;SDS011;11619;50.140;8.518;2023-04-25T11:17:55;8.45;;;3.00;;
22904;SDS011;11619;50.140;8.518;2023-04-25T11:20:24;6.35;;;3.15;;
22904;SDS011;11619;50.140;8.518;2023-04-25T11:22:52;8.70;;;3.00;;
22904;SDS011;11619;50.140;8.518;2023-04-25T11:25:19;7.60;;;3.17;;
22904;SDS011;11619;50.140;8.518;2023-04-25T11:27:56;6.22;;;2.85;;
22904;SDS011;11619;50.140;8.518;2023-04-25T11:30:23;8.15;;;3.40;;
22904;SDS011;11619;50.140;8.518;2023-04-25T11:32:51;9.20;;;3.42;;
22904;SDS011;11619;50.140;8.518;2023-04-25T11:35:21;9.13;;;3.35;;
22904;SDS011;11619;50.140;8.518;2023-04-25T11:37:49;9.38;;;3.17;;
22904;SDS011;11619;50.140;8.518;2023-04-25T11:40:16;6.70;;;3.15;;
22904;SDS011;11619;50.140;8.518;2023-04-25T11:42:43;6.10;;;3.67;;
22904;SDS011;11619;50.140;8.518;2023-04-25T11:45:11;8.38;;;3.38;;
22904;SDS011;11619;50.140;8.518;2023-04-25T11:47:38;7.32;;;3.10;;
22904;SDS011;11619;50.140;8.518;2023-04-25T11:50:05;8.38;;;3.47;;
22904;SDS011;11619;50.140;8.518;2023-04-25T11:52:46;8.45;;;3.40;;
22904;SDS011;11619;50.140;8.518;2023-04-25T11:55:15;7.50;;;3.38;;
22904;SDS011;11619;50.140;8.518;2023-04-25T11:57:43;4.85;;;3.17;;
22904;SDS011;11619;50.140;8.518;2023-04-25T12:02:42;4.53;;;2.60;;
22904;SDS011;11619;50.140;8.518;2023-04-25T12:05:10;8.00;;;3.00;;
22904;SDS011;11619;50.140;8.518;2023-04-25T12:07:57;5.18;;;2.83;;
22904;SDS011;11619;50.140;8.518;2023-04-25T12:10:24;7.40;;;3.20;;
22904;SDS011;11619;50.140;8.518;2023-04-25T12:12:52;8.18;;;2.92;;
22904;SDS011;11619;50.140;8.518;2023-04-25T12:15:23;4.72;;;3.13;;
22904;SDS011;11619;50.140;8.518;2023-04-25T12:17:53;9.20;;;3.70;;
22904;SDS011;11619;50.140;8.518;2023-04-25T12:20:21;10.65;;;3.45;;
22904;SDS011;11619;50.140;8.518;2023-04-25T12:22:51;8.07;;;3.55;;
22904;SDS011;11619;50.140;8.518;2023-04-25T12:28:20;8.73;;;3.00;;
22904;SDS011;11619;50.140;8.518;2023-04-25T12:30:57;7.63;;;3.22;;
22904;SDS011;11619;50.140;8.518;2023-04-25T12:33:26;5.93;;;3.13;;
22904;SDS011;11619;50.140;8.518;2023-04-25T12:35:56;6.70;;;2.75;;
22904;SDS011;11619;50.140;8.518;2023-04-25T12:38:24;7.47;;;3.60;;
22904;SDS011;11619;50.140;8.518;2023-04-25T12:40:52;9.02;;;3.08;;
22904;SDS011;11619;50.140;8.518;2023-04-25T12:43:19;7.13;;;3.00;;
22904;SDS011;11619;50.140;8.518;2023-04-25T12:45:49;8.45;;;2.70;;
22904;SDS011;11619;50.140;8.518;2023-04-25T12:48:17;5.93;;;2.70;;
22904;SDS011;11619;50.140;8.518;2023-04-25T12:50:46;8.13;;;3.20;;
22904;SDS011;11619;50.140;8.518;2023-04-25T12:53:15;6.70;;;2.92;;
22904;SDS011;11619;50.140;8.518;2023-04-25T12:55:42;10.32;;;3.17;;
22904;SDS011;11619;50.140;8.518;2023-04-25T12:58:09;6.47;;;2.78;;
22904;SDS011;11619;50.140;8.518;2023-04-25T13:00:35;5.88;;;2.80;;
22904;SDS011;11619;50.140;8.518;2023-04-25T13:03:02;8.40;;;3.40;;
22904;SDS011;11619;50.140;8.518;2023-04-25T13:05:29;6.35;;;2.80;;
22904;SDS011;11619;50.140;8.518;2023-04-25T13:07:56;7.88;;;3.17;;
22904;SDS011;11619;50.140;8.518;2023-04-25T13:10:23;6.05;;;3.17;;
22904;SDS011;11619;50.140;8.518;2023-04-25T13:12:49;5.65;;;3.38;;
22904;SDS011;11619;50.140;8.518;2023-04-25T13:15:16;9.07;;;3.72;;
22904;SDS011;11619;50.140;8.518;2023-04-25T13:17:43;8.50;;;4.05;;
22904;SDS011;11619;50.140;8.518;2023-04-25T13:20:09;7.90;;;3.90;;
22904;SDS011;11619;50.140;8.518;2023-04-25T13:22:37;9.93;;;4.05;;
22904;SDS011;11619;50.140;8.518;2023-04-25T13:25:05;9.75;;;3.97;;
22904;SDS011;11619;50.140;8.518;2023-04-25T13:27:32;11.75;;;3.88;;
22904;SDS011;11619;50.140;8.518;2023-04-25T13:30:00;9.30;;;3.90;;
22904;SDS011;11619;50.140;8.518;2023-04-25T13:32:30;9.52;;;3.60;;
22904;SDS011;11619;50.140;8.518;2023-04-25T13:34:57;6.00;;;3.30;;
22904;SDS011;11619;50.140;8.518;2023-04-25T13:37:23;7.00;;;3.30;;
22904;SDS011;11619;50.140;8.518;2023-04-25T13:39:50;5.70;;;3.25;;
22904;SDS011;11619;50.140;8.518;2023-04-25T13:42:17;6.80;;;2.97;;
22904;SDS011;11619;50.140;8.518;2023-04-25T13:44:44;6.32;;;3.30;;
22904;SDS011;11619;50.140;8.518;2023-04-25T13:47:10;9.07;;;3.03;;
22904;SDS011;11619;50.140;8.518;2023-04-25T13:49:37;6.75;;;2.92;;
22904;SDS011;11619;50.140;8.518;2023-04-25T13:52:03;6.47;;;2.97;;
22904;SDS011;11619;50.140;8.518;2023-04-25T13:54:30;7.03;;;2.42;;
22904;SDS011;11619;50.140;8.518;2023-04-25T13:56:56;5.25;;;2.60;;
22904;SDS011;11619;50.140;8.518;2023-04-25T13:59:25;5.90;;;2.42;;
22904;SDS011;11619;50.140;8.518;2023-04-25T14:01:54;5.28;;;2.47;;
22904;SDS011;11619;50.140;8.518;2023-04-25T14:04:20;8.40;;;2.88;;
22904;SDS011;11619;50.140;8.518;2023-04-25T14:06:46;5.28;;;2.45;;
22904;SDS011;11619;50.140;8.518;2023-04-25T14:09:13;6.63;;;2.35;;
22904;SDS011;11619;50.140;8.518;2023-04-25T14:11:39;6.47;;;2.80;;
22904;SDS011;11619;50.140;8.518;2023-04-25T14:14:06;5.22;;;2.05;;
22904;SDS011;11619;50.140;8.518;2023-04-25T14:16:33;7.32;;;2.22;;
22904;SDS011;11619;50.140;8.518;2023-04-25T14:18:59;4.38;;;2.42;;
22904;SDS011;11619;50.140;8.518;2023-04-25T14:21:26;6.63;;;2.50;;
22904;SDS011;11619;50.140;8.518;2023-04-25T14:23:54;5.20;;;1.90;;
22904;SDS011;11619;50.140;8.518;2023-04-25T14:26:20;4.05;;;2.47;;
22904;SDS011;11619;50.140;8.518;2023-04-25T14:28:47;7.90;;;2.70;;
22904;SDS011;11619;50.140;8.518;2023-04-25T14:31:13;4.68;;;2.13;;
22904;SDS011;11619;50.140;8.518;2023-04-25T14:33:40;7.60;;;2.40;;
22904;SDS011;11619;50.140;8.518;2023-04-25T14:36:14;6.15;;;2.40;;
22904;SDS011;11619;50.140;8.518;2023-04-25T14:38:40;10.20;;;2.30;;
22904;SDS011;11619;50.140;8.518;2023-04-25T14:41:07;5.85;;;2.35;;
22904;SDS011;11619;50.140;8.518;2023-04-25T14:43:33;5.00;;;2.40;;
22904;SDS011;11619;50.140;8.518;2023-04-25T14:45:59;9.88;;;2.67;;
22904;SDS011;11619;50.140;8.518;2023-04-25T14:48:26;7.95;;;2.90;;
22904;SDS011;11619;50.140;8.518;2023-04-25T14:50:53;6.95;;;2.95;;
22904;SDS011;11619;50.140;8.518;2023-04-25T14:53:19;9.98;;;3.03;;
22904;SDS011;11619;50.140;8.518;2023-04-25T14:55:46;10.32;;;2.65;;
22904;SDS011;11619;50.140;8.518;2023-04-25T14:58:12;6.72;;;2.20;;
22904;SDS011;11619;50.140;8.518;2023-04-25T15:00:39;7.82;;;3.03;;
22904;SDS011;11619;50.140;8.518;2023-04-25T15:03:06;8.50;;;2.78;;
22904;SDS011;11619;50.140;8.518;2023-04-25T15:05:34;4.55;;;2.63;;
22904;SDS011;11619;50.140;8.518;2023-04-25T15:08:01;7.85;;;2.40;;
22904;SDS011;11619;50.140;8.518;2023-04-25T15:10:29;6.82;;;2.25;;